createdAt,value
2018-04-24T00:02:02.892Z,16.56
2018-04-24T00:04:30.435Z,16.45
2018-04-24T00:06:57.963Z,16.35
2018-04-24T00:09:25.495Z,16.46
2018-04-24T00:11:53.022Z,16.37
2018-04-24T00:14:20.559Z,16.32
2018-04-24T00:16:48.093Z,16.25
2018-04-24T00:19:15.621Z,16.25
2018-04-24T00:21:43.201Z,16.37
2018-04-24T00:24:10.731Z,16.37
2018-04-24T00:26:38.267Z,16.39
2018-04-24T00:29:05.800Z,16.38
2018-04-24T00:31:33.326Z,16.37
2018-04-24T00:34:00.851Z,16.15
2018-04-24T00:36:28.383Z,16.10
2018-04-24T00:38:55.985Z,16.20
2018-04-24T00:41:23.520Z,16.07
2018-04-24T00:43:51.052Z,16.11
2018-04-24T00:46:18.580Z,15.91
2018-04-24T00:48:46.111Z,15.73
2018-04-24T00:51:13.654Z,15.63
2018-04-24T00:53:41.221Z,15.68
2018-04-24T00:56:08.753Z,15.82
2018-04-24T00:58:36.282Z,15.78
2018-04-24T01:01:03.810Z,15.60
2018-04-24T01:03:31.359Z,15.67
2018-04-24T01:05:58.901Z,15.56
2018-04-24T01:08:26.437Z,15.54
2018-04-24T01:10:53.972Z,15.42
2018-04-24T01:13:21.507Z,15.42
2018-04-24T01:15:49.053Z,15.09
2018-04-24T01:18:16.578Z,15.02
2018-04-24T01:20:44.107Z,14.81
2018-04-24T01:23:11.695Z,14.73
2018-04-24T01:25:39.261Z,14.78
2018-04-24T01:28:06.794Z,14.88
2018-04-24T01:30:34.364Z,15.03
2018-04-24T01:33:01.906Z,15.08
2018-04-24T01:35:29.475Z,15.03
2018-04-24T01:37:57.003Z,14.99
2018-04-24T01:40:24.571Z,14.88
2018-04-24T01:42:52.160Z,14.94
2018-04-24T01:45:19.687Z,15.02
2018-04-24T01:47:47.240Z,15.08
2018-04-24T01:50:14.766Z,15.11
2018-04-24T01:52:42.287Z,15.06
2018-04-24T01:55:09.817Z,14.93
2018-04-24T01:57:37.336Z,15.05
2018-04-24T02:00:06.015Z,14.82
2018-04-24T02:02:33.582Z,14.60
2018-04-24T02:05:01.103Z,14.54
2018-04-24T02:07:28.631Z,14.57
2018-04-24T02:09:56.159Z,14.72
2018-04-24T02:12:23.700Z,14.65
2018-04-24T02:14:51.267Z,14.73
2018-04-24T02:17:18.791Z,14.69
2018-04-24T02:19:46.367Z,14.69
2018-04-24T02:22:13.890Z,14.59
2018-04-24T02:24:41.426Z,14.68
2018-04-24T02:27:09.877Z,14.66
2018-04-24T02:29:37.452Z,14.62
2018-04-24T02:32:05.036Z,14.57
2018-04-24T02:34:32.571Z,14.53
2018-04-24T02:37:00.118Z,14.56
2018-04-24T02:39:27.655Z,14.45
2018-04-24T02:41:55.191Z,14.43
2018-04-24T02:44:22.784Z,14.53
2018-04-24T02:46:50.313Z,14.63
2018-04-24T02:49:18.329Z,14.63
2018-04-24T02:51:45.863Z,14.53
2018-04-24T02:54:13.392Z,14.50
2018-04-24T02:56:40.929Z,14.40
2018-04-24T02:59:08.495Z,14.34
2018-04-24T03:01:36.074Z,14.44
2018-04-24T03:04:03.619Z,14.51
2018-04-24T03:06:31.192Z,14.45
2018-04-24T03:08:58.729Z,14.36
2018-04-24T03:11:26.264Z,14.36
2018-04-24T03:13:53.847Z,14.27
2018-04-24T03:16:21.382Z,14.20
2018-04-24T03:18:48.924Z,13.97
2018-04-24T03:21:16.460Z,14.07
2018-04-24T03:23:43.997Z,14.07
2018-04-24T03:26:11.555Z,14.05
2018-04-24T03:28:39.078Z,13.99
2018-04-24T03:31:06.647Z,13.79
2018-04-24T03:33:34.271Z,13.92
2018-04-24T03:36:01.839Z,13.96
2018-04-24T03:38:29.419Z,13.87
2018-04-24T03:40:56.952Z,13.79
2018-04-24T03:43:24.537Z,13.62
2018-04-24T03:45:52.070Z,13.43
2018-04-24T03:48:19.602Z,13.46
2018-04-24T03:50:47.135Z,13.45
2018-04-24T03:53:14.700Z,13.55
2018-04-24T03:55:42.231Z,13.48
2018-04-24T03:58:09.808Z,13.63
2018-04-24T04:00:37.339Z,13.57
2018-04-24T04:03:04.912Z,13.50
2018-04-24T04:05:32.445Z,13.72
2018-04-24T04:07:59.989Z,13.53
2018-04-24T04:10:27.552Z,13.56
2018-04-24T04:12:55.083Z,13.68
2018-04-24T04:15:22.621Z,14.02
2018-04-24T04:18:01.783Z,14.34
2018-04-24T04:20:41.117Z,14.48
2018-04-24T04:23:20.361Z,14.65
2018-04-24T04:25:47.937Z,14.95
2018-04-24T04:28:15.517Z,15.61
2018-04-24T04:30:43.091Z,15.87
2018-04-24T04:33:10.627Z,16.03
2018-04-24T04:35:38.168Z,15.91
2018-04-24T04:38:05.694Z,16.14
2018-04-24T04:40:33.228Z,16.20
2018-04-24T04:43:00.770Z,16.30
2018-04-24T04:45:28.304Z,16.65
2018-04-24T04:47:55.933Z,17.37
2018-04-24T04:50:23.443Z,17.89
2018-04-24T04:52:50.981Z,18.58
2018-04-24T04:55:18.507Z,19.03
2018-04-24T04:57:46.040Z,19.36
2018-04-24T05:00:13.606Z,19.42
2018-04-24T05:02:41.139Z,19.72
2018-04-24T05:05:08.802Z,20.07
2018-04-24T05:07:36.295Z,19.87
2018-04-24T05:10:03.879Z,20.77
2018-04-24T05:12:31.418Z,20.87
2018-04-24T05:14:58.971Z,20.85
2018-04-24T05:17:26.548Z,21.34
2018-04-24T05:19:54.092Z,20.03
2018-04-24T05:22:21.681Z,20.20
2018-04-24T05:24:49.226Z,21.09
2018-04-24T05:27:16.776Z,21.61
2018-04-24T05:29:44.312Z,21.64
2018-04-24T05:32:11.855Z,22.63
2018-04-24T05:34:39.443Z,22.79
2018-04-24T05:37:07.004Z,22.74
2018-04-24T05:39:34.535Z,22.20
2018-04-24T05:42:02.664Z,20.68
2018-04-24T05:44:30.250Z,21.34
2018-04-24T05:46:57.794Z,22.38
2018-04-24T05:49:25.327Z,21.65
2018-04-24T05:51:52.892Z,22.61
2018-04-24T05:54:20.421Z,22.08
2018-04-24T05:56:48.003Z,20.94
2018-04-24T05:59:15.535Z,20.37
2018-04-24T06:01:43.076Z,21.69
2018-04-24T06:04:10.615Z,22.00
2018-04-24T06:06:38.191Z,22.87
2018-04-24T06:09:06.548Z,22.86
2018-04-24T06:11:34.098Z,23.55
2018-04-24T06:14:01.703Z,23.51
2018-04-24T06:16:29.464Z,24.16
2018-04-24T06:18:57.003Z,23.78
2018-04-24T06:21:24.620Z,23.59
2018-04-24T06:23:52.168Z,24.46
2018-04-24T06:26:19.695Z,24.53
2018-04-24T06:28:47.297Z,24.42
2018-04-24T06:31:14.793Z,24.46
2018-04-24T06:33:42.323Z,24.21
2018-04-24T06:36:09.852Z,23.36
2018-04-24T06:38:37.443Z,22.94
2018-04-24T06:41:04.983Z,24.08
2018-04-24T06:43:32.515Z,24.23
2018-04-24T06:46:00.056Z,22.63
2018-04-24T06:48:27.592Z,22.12
2018-04-24T06:50:55.145Z,22.57
2018-04-24T06:53:22.684Z,23.51
2018-04-24T06:55:50.229Z,24.00
2018-04-24T06:58:17.759Z,24.08
2018-04-24T07:00:45.375Z,24.56
2018-04-24T07:03:12.917Z,24.64
2018-04-24T07:05:40.482Z,24.39
2018-04-24T07:08:08.034Z,24.57
2018-04-24T07:10:35.577Z,24.94
2018-04-24T07:13:03.112Z,25.03
2018-04-24T07:15:30.643Z,25.18
2018-04-24T07:17:58.191Z,24.03
2018-04-24T07:20:25.733Z,25.12
2018-04-24T07:22:53.271Z,24.54
2018-04-24T07:25:20.805Z,26.49
2018-04-24T07:27:48.349Z,26.71
2018-04-24T07:30:15.937Z,26.27
2018-04-24T07:32:43.469Z,26.53
2018-04-24T07:35:11.007Z,26.53
2018-04-24T07:37:38.655Z,26.96
2018-04-24T07:40:06.139Z,27.28
2018-04-24T07:42:33.687Z,27.28
2018-04-24T07:45:01.225Z,27.04
2018-04-24T07:47:28.760Z,27.56
2018-04-24T07:49:56.300Z,27.53
2018-04-24T07:52:23.848Z,27.61
2018-04-24T07:54:51.415Z,27.66
2018-04-24T07:57:18.957Z,28.01
2018-04-24T07:59:46.500Z,27.54
2018-04-24T08:02:14.045Z,27.15
2018-04-24T08:04:41.618Z,27.62
2018-04-24T08:07:09.151Z,27.82
2018-04-24T08:09:36.687Z,28.75
2018-04-24T08:12:04.236Z,28.10
2018-04-24T08:14:31.782Z,28.91
2018-04-24T08:16:59.327Z,28.64
2018-04-24T08:19:26.875Z,29.01
2018-04-24T08:21:54.412Z,28.59
2018-04-24T08:24:21.979Z,29.17
2018-04-24T08:26:49.520Z,30.34
2018-04-24T08:29:17.095Z,30.57
2018-04-24T08:31:44.628Z,31.32
2018-04-24T08:34:12.224Z,31.16
2018-04-24T08:36:39.770Z,31.14
2018-04-24T08:39:07.373Z,31.54
2018-04-24T08:41:35.456Z,31.09
2018-04-24T08:44:03.047Z,30.33
2018-04-24T08:46:30.592Z,29.97
2018-04-24T08:48:58.250Z,30.66
2018-04-24T08:51:25.727Z,31.00
2018-04-24T08:53:53.317Z,31.98
2018-04-24T08:56:20.903Z,31.46
2018-04-24T08:58:48.450Z,31.59
2018-04-24T09:01:16.049Z,31.86
2018-04-24T09:03:43.612Z,31.72
2018-04-24T09:06:11.173Z,31.46
2018-04-24T09:08:39.234Z,30.83
2018-04-24T09:11:06.815Z,31.10
2018-04-24T09:13:34.352Z,30.57
2018-04-24T09:16:01.897Z,30.38
2018-04-24T09:18:29.447Z,30.73
2018-04-24T09:20:57.024Z,30.52
2018-04-24T09:23:24.571Z,30.79
2018-04-24T09:25:52.111Z,30.73
2018-04-24T09:28:19.638Z,31.54
2018-04-24T09:30:47.232Z,33.14
2018-04-24T09:33:14.776Z,32.82
2018-04-24T09:35:42.370Z,32.60
2018-04-24T09:38:09.947Z,32.30
2018-04-24T09:40:37.524Z,32.43
2018-04-24T09:43:05.089Z,33.05
2018-04-24T09:45:32.682Z,31.83
2018-04-24T09:48:00.300Z,33.48
2018-04-24T09:50:27.912Z,34.12
2018-04-24T09:52:55.472Z,32.69
2018-04-24T09:55:23.010Z,33.69
2018-04-24T09:57:50.588Z,33.46
2018-04-24T10:00:23.838Z,34.28
2018-04-24T10:02:51.432Z,35.04
2018-04-24T10:05:18.972Z,35.40
2018-04-24T10:07:46.509Z,35.54
2018-04-24T10:10:14.053Z,35.80
2018-04-24T10:12:42.460Z,35.80
2018-04-24T10:15:10.016Z,35.25
2018-04-24T10:17:37.558Z,34.37
2018-04-24T10:20:05.121Z,34.14
2018-04-24T10:22:32.658Z,34.18
2018-04-24T10:25:00.200Z,34.97
2018-04-24T10:27:27.736Z,35.50
2018-04-24T10:29:55.268Z,35.89
2018-04-24T10:32:22.802Z,35.88
2018-04-24T10:34:50.371Z,35.77
2018-04-24T10:37:17.913Z,34.69
2018-04-24T10:39:45.449Z,34.68
2018-04-24T10:42:12.979Z,34.74
2018-04-24T10:44:40.777Z,34.39
2018-04-24T10:47:08.307Z,35.57
2018-04-24T10:49:35.887Z,36.21
2018-04-24T10:52:03.432Z,35.70
2018-04-24T10:54:30.974Z,36.63
2018-04-24T10:56:58.499Z,35.55
2018-04-24T10:59:26.148Z,36.38
2018-04-24T11:01:53.891Z,36.59
2018-04-24T11:04:21.436Z,36.39
2018-04-24T11:06:48.968Z,35.77
2018-04-24T11:09:16.504Z,35.85
2018-04-24T11:11:44.049Z,35.39
2018-04-24T11:14:11.594Z,34.75
2018-04-24T11:16:39.130Z,34.66
2018-04-24T11:19:06.710Z,34.61
2018-04-24T11:21:34.256Z,35.12
2018-04-24T11:24:01.793Z,35.85
2018-04-24T11:26:29.327Z,36.59
2018-04-24T11:28:56.912Z,37.13
2018-04-24T11:31:24.471Z,36.76
2018-04-24T11:33:52.015Z,36.92
2018-04-24T11:36:20.264Z,36.17
2018-04-24T11:38:47.807Z,37.10
2018-04-24T11:41:15.438Z,37.18
2018-04-24T11:43:42.988Z,35.66
2018-04-24T11:46:10.572Z,35.87
2018-04-24T11:48:38.391Z,36.04
2018-04-24T11:51:05.932Z,36.55
2018-04-24T11:53:33.480Z,36.95
2018-04-24T11:56:01.011Z,35.33
2018-04-24T11:58:28.592Z,34.67
2018-04-24T12:00:56.170Z,34.22
2018-04-24T12:03:23.713Z,34.96
2018-04-24T12:05:51.505Z,35.16
2018-04-24T12:08:19.075Z,36.22
2018-04-24T12:10:46.624Z,36.39
2018-04-24T12:13:14.217Z,36.28
2018-04-24T12:15:41.823Z,35.53
2018-04-24T12:18:09.361Z,35.38
2018-04-24T12:20:36.906Z,34.68
2018-04-24T12:23:04.443Z,33.76
2018-04-24T12:25:32.027Z,33.78
2018-04-24T12:27:59.559Z,34.04
2018-04-24T12:30:27.195Z,34.57
2018-04-24T12:32:54.715Z,34.85
2018-04-24T12:35:22.247Z,34.63
2018-04-24T12:37:49.776Z,34.18
2018-04-24T12:40:17.308Z,34.81
2018-04-24T12:42:44.841Z,34.72
2018-04-24T12:45:12.482Z,35.13
2018-04-24T12:47:40.033Z,34.09
2018-04-24T12:50:07.636Z,33.87
2018-04-24T12:52:35.253Z,33.35
2018-04-24T12:55:02.739Z,34.09
2018-04-24T12:57:30.313Z,33.45
2018-04-24T12:59:57.848Z,33.50
2018-04-24T13:02:25.378Z,33.76
2018-04-24T13:04:52.923Z,33.59
2018-04-24T13:07:20.464Z,33.24
2018-04-24T13:09:48.049Z,32.96
2018-04-24T13:12:15.625Z,32.61
2018-04-24T13:14:43.199Z,32.22
2018-04-24T13:17:10.747Z,32.01
2018-04-24T13:19:38.300Z,32.35
2018-04-24T13:22:05.833Z,31.79
2018-04-24T13:24:33.384Z,31.77
2018-04-24T13:27:00.915Z,31.23
2018-04-24T13:29:28.453Z,31.34
2018-04-24T13:31:55.989Z,31.61
2018-04-24T13:34:23.521Z,31.36
2018-04-24T13:36:51.065Z,31.12
2018-04-24T13:39:18.594Z,30.45
2018-04-24T13:41:46.138Z,30.18
2018-04-24T13:44:13.673Z,30.29
2018-04-24T13:46:41.223Z,30.54
2018-04-24T13:49:08.757Z,30.74
2018-04-24T13:51:36.329Z,30.39
2018-04-24T13:54:03.859Z,30.57
2018-04-24T13:56:31.395Z,30.76
2018-04-24T13:58:58.934Z,30.53
2018-04-24T14:01:26.467Z,30.46
2018-04-24T14:03:54.032Z,30.79
2018-04-24T14:06:21.618Z,30.65
2018-04-24T14:08:49.139Z,30.48
2018-04-24T14:11:16.678Z,30.46
2018-04-24T14:13:44.280Z,30.40
2018-04-24T14:16:11.804Z,30.13
2018-04-24T14:18:39.324Z,30.05
2018-04-24T14:21:06.851Z,29.88
2018-04-24T14:23:34.396Z,29.94
2018-04-24T14:26:01.929Z,29.87
2018-04-24T14:28:29.455Z,29.79
2018-04-24T14:30:56.984Z,29.87
2018-04-24T14:33:24.531Z,30.18
2018-04-24T14:35:52.071Z,30.05
2018-04-24T14:38:19.597Z,29.90
2018-04-24T14:40:49.960Z,30.09
2018-04-24T14:43:17.646Z,29.78
2018-04-24T14:45:47.035Z,29.73
2018-04-24T14:48:15.315Z,29.72
2018-04-24T14:50:47.834Z,29.40
2018-04-24T14:53:18.172Z,29.34
2018-04-24T14:58:46.633Z,29.71
2018-04-24T15:01:14.264Z,29.55
2018-04-24T15:03:41.787Z,29.36
2018-04-24T15:06:09.348Z,29.40
2018-04-24T15:08:41.231Z,29.48
2018-04-24T15:11:08.864Z,29.53
2018-04-24T15:13:38.781Z,29.54
2018-04-24T15:16:07.887Z,29.61
2018-04-24T15:18:35.459Z,29.29
2018-04-24T15:21:04.700Z,29.08
2018-04-24T15:23:33.879Z,29.33
2018-04-24T15:26:02.716Z,29.39
2018-04-24T15:28:33.114Z,29.44
2018-04-24T15:31:00.658Z,29.33
2018-04-24T15:33:28.292Z,29.22
2018-04-24T15:35:55.820Z,29.16
2018-04-24T15:38:23.343Z,29.39
2018-04-24T15:40:50.871Z,29.39
2018-04-24T15:43:18.420Z,29.35
2018-04-24T15:45:45.954Z,29.11
2018-04-24T15:48:13.478Z,28.97
2018-04-24T15:50:41.025Z,29.01
2018-04-24T15:53:08.568Z,28.94
2018-04-24T15:55:36.097Z,28.61
2018-04-24T15:58:03.623Z,28.75
2018-04-24T16:00:31.165Z,28.79
2018-04-24T16:02:58.787Z,28.91
2018-04-24T16:05:26.305Z,28.98
2018-04-24T16:07:53.904Z,28.86
2018-04-24T16:10:21.464Z,28.66
2018-04-24T16:12:48.991Z,28.40
2018-04-24T16:15:16.530Z,28.04
2018-04-24T16:17:44.111Z,27.64
2018-04-24T16:20:11.647Z,27.58
2018-04-24T16:22:39.226Z,27.41
2018-04-24T16:25:06.762Z,27.26
2018-04-24T16:27:34.357Z,27.10
2018-04-24T16:30:01.927Z,26.80
2018-04-24T16:32:29.533Z,26.78
2018-04-24T16:34:57.076Z,26.72
2018-04-24T16:37:24.720Z,26.53
2018-04-24T16:39:52.256Z,26.50
2018-04-24T16:42:19.792Z,26.57
2018-04-24T16:44:47.358Z,26.47
2018-04-24T16:47:14.882Z,26.22
2018-04-24T16:49:43.380Z,26.34
2018-04-24T16:52:10.914Z,26.29
2018-04-24T16:54:38.451Z,26.05
2018-04-24T16:57:06.076Z,26.00
2018-04-24T16:59:33.621Z,25.89
2018-04-24T17:02:01.156Z,25.80
2018-04-24T17:04:28.698Z,25.65
2018-04-24T17:06:56.302Z,25.57
2018-04-24T17:09:23.815Z,25.47
2018-04-24T17:11:51.410Z,25.58
2018-04-24T17:14:18.989Z,25.44
2018-04-24T17:16:46.894Z,25.51
2018-04-24T17:19:19.596Z,25.53
2018-04-24T17:21:47.159Z,25.26
2018-04-24T17:24:14.705Z,25.04
2018-04-24T17:26:42.296Z,24.61
2018-04-24T17:29:09.901Z,24.37
2018-04-24T17:31:37.470Z,23.46
2018-04-24T17:34:05.009Z,22.80
2018-04-24T17:36:32.583Z,22.20
2018-04-24T17:39:04.140Z,21.83
2018-04-24T17:41:31.717Z,21.51
2018-04-24T17:43:59.491Z,21.57
2018-04-24T17:46:27.041Z,21.71
2018-04-24T17:48:54.588Z,21.74
2018-04-24T17:51:22.141Z,21.78
2018-04-24T17:53:49.671Z,21.71
2018-04-24T17:56:17.683Z,21.73
2018-04-24T17:58:45.251Z,21.72
2018-04-24T18:01:12.843Z,21.61
2018-04-24T18:03:40.420Z,21.55
2018-04-24T18:06:08.020Z,21.68
2018-04-24T18:08:35.629Z,21.98
2018-04-24T18:11:03.196Z,21.79
2018-04-24T18:13:30.790Z,22.12
2018-04-24T18:15:58.320Z,22.07
2018-04-24T18:18:25.860Z,21.93
2018-04-24T18:20:53.398Z,21.78
2018-04-24T18:23:20.972Z,21.83
2018-04-24T18:25:48.588Z,21.86
2018-04-24T18:28:16.172Z,21.84
2018-04-24T18:30:43.706Z,21.84
2018-04-24T18:33:11.292Z,21.97
2018-04-24T18:35:38.830Z,22.01
2018-04-24T18:38:06.387Z,21.91
2018-04-24T18:40:33.927Z,21.67
2018-04-24T18:43:01.471Z,21.74
2018-04-24T18:45:29.014Z,21.75
2018-04-24T18:47:56.540Z,21.90
2018-04-24T18:50:24.123Z,21.78
2018-04-24T18:52:51.659Z,21.78
2018-04-24T18:55:19.219Z,21.82
2018-04-24T18:57:46.791Z,21.88
2018-04-24T19:00:14.367Z,22.01
2018-04-24T19:02:41.907Z,21.95
2018-04-24T19:05:09.521Z,21.70
2018-04-24T19:07:37.088Z,21.31
2018-04-24T19:10:04.681Z,21.47
2018-04-24T19:12:32.228Z,21.60
2018-04-24T19:14:59.772Z,21.71
2018-04-24T19:17:27.418Z,21.76
2018-04-24T19:19:54.947Z,21.59
2018-04-24T19:22:22.484Z,21.67
2018-04-24T19:24:55.683Z,21.58
2018-04-24T19:27:23.806Z,21.49
2018-04-24T19:29:52.688Z,21.39
2018-04-24T19:32:26.148Z,21.28
2018-04-24T19:34:55.221Z,21.00
2018-04-24T19:37:24.335Z,20.90
2018-04-24T19:40:00.046Z,20.82
2018-04-24T19:42:27.713Z,20.68
2018-04-24T19:44:55.374Z,20.67
2018-04-24T19:47:22.922Z,20.62
2018-04-24T19:49:56.025Z,20.53
2018-04-24T19:52:23.602Z,20.53
2018-04-24T19:54:56.864Z,20.49
2018-04-24T19:57:24.558Z,20.44
2018-04-24T19:59:52.151Z,20.42
2018-04-24T20:02:19.748Z,20.47
2018-04-24T20:04:47.320Z,20.65
2018-04-24T20:07:14.848Z,20.56
2018-04-24T20:09:42.411Z,20.47
2018-04-24T20:12:09.963Z,20.50
2018-04-24T20:14:37.493Z,20.59
2018-04-24T20:17:05.031Z,20.51
2018-04-24T20:19:32.560Z,20.29
2018-04-24T20:22:00.083Z,20.21
2018-04-24T20:24:27.802Z,20.31
2018-04-24T20:26:55.340Z,20.24
2018-04-24T20:29:22.867Z,20.46
2018-04-24T20:31:50.389Z,20.51
2018-04-24T20:34:17.918Z,20.51
2018-04-24T20:36:45.441Z,20.49
2018-04-24T20:39:12.973Z,20.53
2018-04-24T20:41:40.515Z,20.55
2018-04-24T20:44:08.048Z,20.53
2018-04-24T20:46:35.572Z,20.57
2018-04-24T20:49:03.099Z,20.38
2018-04-24T20:51:30.625Z,20.38
2018-04-24T20:53:58.290Z,20.43
2018-04-24T20:56:25.766Z,20.52
2018-04-24T20:58:53.291Z,20.64
2018-04-24T21:01:20.816Z,20.68
2018-04-24T21:03:48.355Z,20.68
2018-04-24T21:06:15.893Z,20.53
2018-04-24T21:08:43.478Z,20.23
2018-04-24T21:11:11.206Z,20.22
2018-04-24T21:13:38.799Z,20.28
2018-04-24T21:16:06.450Z,20.42
2018-04-24T21:18:34.041Z,20.53
2018-04-24T21:21:01.632Z,20.52
2018-04-24T21:23:29.225Z,20.54
2018-04-24T21:25:56.759Z,20.52
2018-04-24T21:28:24.289Z,20.65
2018-04-24T21:30:51.819Z,20.69
2018-04-24T21:33:19.343Z,20.55
2018-04-24T21:35:46.869Z,20.37
2018-04-24T21:38:14.399Z,20.21
2018-04-24T21:40:41.963Z,20.23
2018-04-24T21:43:09.487Z,20.19
2018-04-24T21:45:37.031Z,20.03
2018-04-24T21:48:04.560Z,20.05
2018-04-24T21:50:32.118Z,19.93
2018-04-24T21:52:59.665Z,19.67
2018-04-24T21:55:27.256Z,19.56
2018-04-24T21:57:54.789Z,19.53
2018-04-24T22:00:22.363Z,19.53
2018-04-24T22:02:49.897Z,19.56
2018-04-24T22:05:17.432Z,19.63
2018-04-24T22:07:44.996Z,19.65
2018-04-24T22:10:12.534Z,19.64
2018-04-24T22:12:40.118Z,19.70
2018-04-24T22:15:07.881Z,19.56
2018-04-24T22:17:35.427Z,19.61
2018-04-24T22:20:02.963Z,19.64
2018-04-24T22:22:30.483Z,19.66
2018-04-24T22:24:58.025Z,19.64
2018-04-24T22:27:25.551Z,19.61
2018-04-24T22:29:53.119Z,19.62
2018-04-24T22:32:20.640Z,19.52
2018-04-24T22:34:48.171Z,19.23
2018-04-24T22:37:15.696Z,19.14
2018-04-24T22:39:43.228Z,18.85
2018-04-24T22:42:10.756Z,18.90
2018-04-24T22:44:38.310Z,18.75
2018-04-24T22:47:05.853Z,18.94
2018-04-24T22:49:33.404Z,19.06
2018-04-24T22:52:00.960Z,19.13
2018-04-24T22:54:28.527Z,18.85
2018-04-24T22:56:56.051Z,18.75
2018-04-24T22:59:23.590Z,18.33
2018-04-24T23:01:51.123Z,18.41
2018-04-24T23:04:18.653Z,18.40
2018-04-24T23:06:46.223Z,18.27
2018-04-24T23:09:13.754Z,18.08
2018-04-24T23:11:53.038Z,17.85
2018-04-24T23:14:32.224Z,17.56
2018-04-24T23:17:11.506Z,17.55
2018-04-24T23:19:50.780Z,17.65
2018-04-24T23:22:21.916Z,17.73
2018-04-24T23:24:49.450Z,17.78
2018-04-24T23:27:16.979Z,17.83
2018-04-24T23:29:44.508Z,17.94
2018-04-24T23:32:12.040Z,17.77
2018-04-24T23:34:39.584Z,17.71
2018-04-24T23:37:07.117Z,17.85
2018-04-24T23:39:34.656Z,17.79
2018-04-24T23:42:02.189Z,17.71
2018-04-24T23:44:29.725Z,17.63
2018-04-24T23:46:57.256Z,17.69
2018-04-24T23:49:24.797Z,17.65
2018-04-24T23:51:52.335Z,17.83
2018-04-24T23:54:19.866Z,17.96
2018-04-24T23:56:47.394Z,17.84
2018-04-24T23:59:14.924Z,17.80
